sensor_id;sensor_type;location;lat;lon;timestamp;temperature;humidity
69324;DHT22;56470;47.350;8.718;2023-04-01T00:00:54;10.36;64.39
69324;DHT22;56470;47.350;8.718;2023-04-01T00:03:21;10.42;64.52
69324;DHT22;56470;47.350;8.718;2023-04-01T00:05:47;10.43;64.37
69324;DHT22;56470;47.350;8.718;2023-04-01T00:08:12;10.37;64.45
69324;DHT22;56470;47.350;8.718;2023-04-01T00:10:38;10.39;64.31
69324;DHT22;56470;47.350;8.718;2023-04-01T00:13:03;10.42;64.38
69324;DHT22;56470;47.350;8.718;2023-04-01T00:15:29;10.45;64.32
69324;DHT22;56470;47.350;8.718;2023-04-01T00:17:55;10.45;64.25
69324;DHT22;56470;47.350;8.718;2023-04-01T00:20:20;10.50;64.45
69324;DHT22;56470;47.350;8.718;2023-04-01T00:22:46;10.56;64.19
69324;DHT22;56470;47.350;8.718;2023-04-01T00:25:11;10.63;64.22
69324;DHT22;56470;47.350;8.718;2023-04-01T00:27:36;10.71;64.08
69324;DHT22;56470;47.350;8.718;2023-04-01T00:30:02;10.63;63.90
69324;DHT22;56470;47.350;8.718;2023-04-01T00:32:28;10.64;63.98
69324;DHT22;56470;47.350;8.718;2023-04-01T00:34:54;10.63;64.20
69324;DHT22;56470;47.350;8.718;2023-04-01T00:37:20;10.67;63.97
69324;DHT22;56470;47.350;8.718;2023-04-01T00:39:46;10.67;63.87
69324;DHT22;56470;47.350;8.718;2023-04-01T00:42:12;10.63;63.83
69324;DHT22;56470;47.350;8.718;2023-04-01T00:44:38;10.68;64.01
69324;DHT22;56470;47.350;8.718;2023-04-01T00:47:04;10.67;63.97
69324;DHT22;56470;47.350;8.718;2023-04-01T00:49:39;10.71;63.85
69324;DHT22;56470;47.350;8.718;2023-04-01T00:52:07;10.70;63.91
69324;DHT22;56470;47.350;8.718;2023-04-01T00:54:34;10.77;63.84
69324;DHT22;56470;47.350;8.718;2023-04-01T00:57:12;10.84;63.39
69324;DHT22;56470;47.350;8.718;2023-04-01T00:59:49;10.81;63.49
69324;DHT22;56470;47.350;8.718;2023-04-01T01:02:18;10.84;63.36
69324;DHT22;56470;47.350;8.718;2023-04-01T01:04:44;10.81;63.27
69324;DHT22;56470;47.350;8.718;2023-04-01T01:07:40;10.73;63.00
69324;DHT22;56470;47.350;8.718;2023-04-01T01:10:30;10.64;63.05
69324;DHT22;56470;47.350;8.718;2023-04-01T01:13:03;10.63;63.11
69324;DHT22;56470;47.350;8.718;2023-04-01T01:15:46;10.61;63.14
69324;DHT22;56470;47.350;8.718;2023-04-01T01:24:12;10.63;63.26
69324;DHT22;56470;47.350;8.718;2023-04-01T01:27:00;10.63;63.43
69324;DHT22;56470;47.350;8.718;2023-04-01T01:35:16;10.52;63.39
69324;DHT22;56470;47.350;8.718;2023-04-01T01:37:45;10.56;63.41
69324;DHT22;56470;47.350;8.718;2023-04-01T01:40:13;10.56;63.19
69324;DHT22;56470;47.350;8.718;2023-04-01T01:42:45;10.57;63.43
69324;DHT22;56470;47.350;8.718;2023-04-01T01:45:14;10.56;63.39
69324;DHT22;56470;47.350;8.718;2023-04-01T01:47:43;10.52;63.35
69324;DHT22;56470;47.350;8.718;2023-04-01T01:50:09;10.52;63.24
69324;DHT22;56470;47.350;8.718;2023-04-01T01:52:35;10.43;63.35
69324;DHT22;56470;47.350;8.718;2023-04-01T01:55:01;10.46;63.35
69324;DHT22;56470;47.350;8.718;2023-04-01T01:57:31;10.46;63.25
69324;DHT22;56470;47.350;8.718;2023-04-01T02:00:06;10.47;63.26
69324;DHT22;56470;47.350;8.718;2023-04-01T02:02:41;10.46;63.35
69324;DHT22;56470;47.350;8.718;2023-04-01T02:05:10;10.40;63.00
69324;DHT22;56470;47.350;8.718;2023-04-01T02:07:37;10.39;63.14
69324;DHT22;56470;47.350;8.718;2023-04-01T02:10:05;10.37;63.14
69324;DHT22;56470;47.350;8.718;2023-04-01T02:12:32;10.33;63.24
69324;DHT22;56470;47.350;8.718;2023-04-01T02:15:03;10.35;62.98
69324;DHT22;56470;47.350;8.718;2023-04-01T02:17:32;10.35;62.99
69324;DHT22;56470;47.350;8.718;2023-04-01T02:20:08;10.36;62.65
69324;DHT22;56470;47.350;8.718;2023-04-01T02:22:39;10.43;62.77
69324;DHT22;56470;47.350;8.718;2023-04-01T02:25:10;10.39;62.52
69324;DHT22;56470;47.350;8.718;2023-04-01T02:27:38;10.40;62.38
69324;DHT22;56470;47.350;8.718;2023-04-01T02:30:03;10.40;62.44
69324;DHT22;56470;47.350;8.718;2023-04-01T02:32:31;10.47;62.53
69324;DHT22;56470;47.350;8.718;2023-04-01T02:34:58;10.50;62.14
69324;DHT22;56470;47.350;8.718;2023-04-01T02:37:25;10.53;62.17
69324;DHT22;56470;47.350;8.718;2023-04-01T02:39:50;10.54;62.12
69324;DHT22;56470;47.350;8.718;2023-04-01T02:42:15;10.52;61.81
69324;DHT22;56470;47.350;8.718;2023-04-01T02:44:41;10.53;61.92
69324;DHT22;56470;47.350;8.718;2023-04-01T02:47:06;10.57;62.03
69324;DHT22;56470;47.350;8.718;2023-04-01T02:49:31;10.61;61.92
69324;DHT22;56470;47.350;8.718;2023-04-01T02:51:56;10.59;61.95
69324;DHT22;56470;47.350;8.718;2023-04-01T02:54:22;10.59;61.43
69324;DHT22;56470;47.350;8.718;2023-04-01T02:56:47;10.56;61.77
69324;DHT22;56470;47.350;8.718;2023-04-01T02:59:13;10.53;61.63
69324;DHT22;56470;47.350;8.718;2023-04-01T03:01:38;10.54;61.59
69324;DHT22;56470;47.350;8.718;2023-04-01T03:04:04;10.57;61.72
69324;DHT22;56470;47.350;8.718;2023-04-01T03:06:30;10.56;61.71
69324;DHT22;56470;47.350;8.718;2023-04-01T03:08:55;10.59;61.54
69324;DHT22;56470;47.350;8.718;2023-04-01T03:11:20;10.64;61.52
69324;DHT22;56470;47.350;8.718;2023-04-01T03:13:46;10.67;61.20
69324;DHT22;56470;47.350;8.718;2023-04-01T03:16:12;10.67;61.32
69324;DHT22;56470;47.350;8.718;2023-04-01T03:18:37;10.68;61.09
69324;DHT22;56470;47.350;8.718;2023-04-01T03:21:23;10.68;60.64
69324;DHT22;56470;47.350;8.718;2023-04-01T03:23:49;10.73;60.96
69324;DHT22;56470;47.350;8.718;2023-04-01T03:26:15;10.73;60.79
69324;DHT22;56470;47.350;8.718;2023-04-01T03:28:40;10.70;60.71
69324;DHT22;56470;47.350;8.718;2023-04-01T03:31:06;10.71;60.40
69324;DHT22;56470;47.350;8.718;2023-04-01T03:33:32;10.63;59.83
69324;DHT22;56470;47.350;8.718;2023-04-01T03:35:57;10.60;60.32
69324;DHT22;56470;47.350;8.718;2023-04-01T03:38:22;10.59;60.09
69324;DHT22;56470;47.350;8.718;2023-04-01T03:40:48;10.59;60.13
69324;DHT22;56470;47.350;8.718;2023-04-01T03:43:13;10.57;60.14
69324;DHT22;56470;47.350;8.718;2023-04-01T03:45:49;10.57;59.89
69324;DHT22;56470;47.350;8.718;2023-04-01T03:48:15;10.50;59.85
69324;DHT22;56470;47.350;8.718;2023-04-01T03:50:41;10.45;59.96
69324;DHT22;56470;47.350;8.718;2023-04-01T03:53:07;10.45;59.80
69324;DHT22;56470;47.350;8.718;2023-04-01T03:55:32;10.45;60.07
69324;DHT22;56470;47.350;8.718;2023-04-01T03:57:58;10.45;60.07
69324;DHT22;56470;47.350;8.718;2023-04-01T04:00:24;10.42;59.92
69324;DHT22;56470;47.350;8.718;2023-04-01T04:02:50;10.42;60.01
69324;DHT22;56470;47.350;8.718;2023-04-01T04:05:15;10.45;60.02
69324;DHT22;56470;47.350;8.718;2023-04-01T04:07:40;10.45;60.16
69324;DHT22;56470;47.350;8.718;2023-04-01T04:10:06;10.53;60.09
69324;DHT22;56470;47.350;8.718;2023-04-01T04:12:32;10.54;60.04
69324;DHT22;56470;47.350;8.718;2023-04-01T04:14:57;10.52;59.93
69324;DHT22;56470;47.350;8.718;2023-04-01T04:17:22;10.53;59.79
69324;DHT22;56470;47.350;8.718;2023-04-01T04:19:48;10.52;59.83
69324;DHT22;56470;47.350;8.718;2023-04-01T04:22:13;10.54;59.80
69324;DHT22;56470;47.350;8.718;2023-04-01T04:24:38;10.53;59.73
69324;DHT22;56470;47.350;8.718;2023-04-01T04:27:04;10.53;59.52
69324;DHT22;56470;47.350;8.718;2023-04-01T04:29:29;10.54;59.66
69324;DHT22;56470;47.350;8.718;2023-04-01T04:31:55;10.54;59.91
69324;DHT22;56470;47.350;8.718;2023-04-01T04:34:20;10.57;60.01
69324;DHT22;56470;47.350;8.718;2023-04-01T04:36:47;10.61;59.87
69324;DHT22;56470;47.350;8.718;2023-04-01T04:39:13;10.61;59.84
69324;DHT22;56470;47.350;8.718;2023-04-01T04:41:38;10.61;59.79
69324;DHT22;56470;47.350;8.718;2023-04-01T04:44:04;10.64;59.69
69324;DHT22;56470;47.350;8.718;2023-04-01T04:46:30;10.67;59.70
69324;DHT22;56470;47.350;8.718;2023-04-01T04:48:55;10.65;59.70
69324;DHT22;56470;47.350;8.718;2023-04-01T04:51:21;10.64;59.98
69324;DHT22;56470;47.350;8.718;2023-04-01T04:53:47;10.64;60.18
69324;DHT22;56470;47.350;8.718;2023-04-01T04:56:13;10.59;60.40
69324;DHT22;56470;47.350;8.718;2023-04-01T04:58:42;10.60;60.67
69324;DHT22;56470;47.350;8.718;2023-04-01T05:01:09;10.53;60.81
69324;DHT22;56470;47.350;8.718;2023-04-01T05:03:35;10.47;61.03
69324;DHT22;56470;47.350;8.718;2023-04-01T05:06:05;10.42;61.07
69324;DHT22;56470;47.350;8.718;2023-04-01T05:08:31;10.43;61.48
69324;DHT22;56470;47.350;8.718;2023-04-01T05:10:57;10.42;61.62
69324;DHT22;56470;47.350;8.718;2023-04-01T05:13:23;10.35;62.05
69324;DHT22;56470;47.350;8.718;2023-04-01T05:15:48;10.29;62.44
69324;DHT22;56470;47.350;8.718;2023-04-01T05:18:13;10.32;62.25
69324;DHT22;56470;47.350;8.718;2023-04-01T05:20:39;10.25;62.02
69324;DHT22;56470;47.350;8.718;2023-04-01T05:23:04;10.20;62.25
69324;DHT22;56470;47.350;8.718;2023-04-01T05:25:29;10.18;62.28
69324;DHT22;56470;47.350;8.718;2023-04-01T05:27:55;10.12;62.45
69324;DHT22;56470;47.350;8.718;2023-04-01T05:30:20;10.15;62.57
69324;DHT22;56470;47.350;8.718;2023-04-01T05:32:46;10.18;62.67
69324;DHT22;56470;47.350;8.718;2023-04-01T05:35:14;10.20;62.68
69324;DHT22;56470;47.350;8.718;2023-04-01T05:37:42;10.18;62.98
69324;DHT22;56470;47.350;8.718;2023-04-01T05:40:11;10.12;63.35
69324;DHT22;56470;47.350;8.718;2023-04-01T05:42:36;10.09;63.17
69324;DHT22;56470;47.350;8.718;2023-04-01T05:45:01;10.13;63.16
69324;DHT22;56470;47.350;8.718;2023-04-01T05:47:27;10.15;63.18
69324;DHT22;56470;47.350;8.718;2023-04-01T05:49:52;10.09;63.39
69324;DHT22;56470;47.350;8.718;2023-04-01T05:52:17;10.08;63.48
69324;DHT22;56470;47.350;8.718;2023-04-01T05:54:43;10.05;63.46
69324;DHT22;56470;47.350;8.718;2023-04-01T05:57:11;10.12;63.33
69324;DHT22;56470;47.350;8.718;2023-04-01T05:59:36;10.18;63.50
69324;DHT22;56470;47.350;8.718;2023-04-01T06:02:02;10.19;63.49
69324;DHT22;56470;47.350;8.718;2023-04-01T06:04:33;10.18;63.29
69324;DHT22;56470;47.350;8.718;2023-04-01T06:06:59;10.20;63.36
69324;DHT22;56470;47.350;8.718;2023-04-01T06:09:29;10.23;63.30
69324;DHT22;56470;47.350;8.718;2023-04-01T06:12:07;10.23;63.34
69324;DHT22;56470;47.350;8.718;2023-04-01T06:15:06;10.22;63.48
69324;DHT22;56470;47.350;8.718;2023-04-01T06:20:22;10.28;63.18
69324;DHT22;56470;47.350;8.718;2023-04-01T06:30:43;10.35;63.14
69324;DHT22;56470;47.350;8.718;2023-04-01T06:33:35;10.46;62.89
69324;DHT22;56470;47.350;8.718;2023-04-01T06:39:40;10.56;62.51
69324;DHT22;56470;47.350;8.718;2023-04-01T06:47:51;10.49;62.23
69324;DHT22;56470;47.350;8.718;2023-04-01T06:55:47;10.63;62.38
69324;DHT22;56470;47.350;8.718;2023-04-01T06:58:27;10.63;62.00
69324;DHT22;56470;47.350;8.718;2023-04-01T07:00:58;10.63;62.02
69324;DHT22;56470;47.350;8.718;2023-04-01T07:03:33;10.67;62.04
69324;DHT22;56470;47.350;8.718;2023-04-01T07:06:09;10.70;61.90
69324;DHT22;56470;47.350;8.718;2023-04-01T07:08:38;10.73;61.90
69324;DHT22;56470;47.350;8.718;2023-04-01T07:11:09;10.75;61.85
69324;DHT22;56470;47.350;8.718;2023-04-01T07:13:41;10.70;61.77
69324;DHT22;56470;47.350;8.718;2023-04-01T07:16:24;10.68;61.62
69324;DHT22;56470;47.350;8.718;2023-04-01T07:19:02;10.73;61.68
69324;DHT22;56470;47.350;8.718;2023-04-01T07:21:54;10.77;61.60
69324;DHT22;56470;47.350;8.718;2023-04-01T07:24:29;10.81;61.53
69324;DHT22;56470;47.350;8.718;2023-04-01T07:26:57;10.82;61.65
69324;DHT22;56470;47.350;8.718;2023-04-01T07:29:23;10.80;61.74
69324;DHT22;56470;47.350;8.718;2023-04-01T07:32:09;10.80;61.77
69324;DHT22;56470;47.350;8.718;2023-04-01T07:34:43;10.85;61.88
69324;DHT22;56470;47.350;8.718;2023-04-01T07:38:04;10.85;62.13
69324;DHT22;56470;47.350;8.718;2023-04-01T07:40:14;10.85;62.34
69324;DHT22;56470;47.350;8.718;2023-04-01T07:45:40;10.77;63.02
69324;DHT22;56470;47.350;8.718;2023-04-01T07:48:24;10.81;63.52
69324;DHT22;56470;47.350;8.718;2023-04-01T07:53:51;10.88;63.30
69324;DHT22;56470;47.350;8.718;2023-04-01T07:56:44;10.95;63.07
69324;DHT22;56470;47.350;8.718;2023-04-01T08:05:26;11.09;63.29
69324;DHT22;56470;47.350;8.718;2023-04-01T08:10:56;11.14;62.88
69324;DHT22;56470;47.350;8.718;2023-04-01T08:16:02;11.15;62.57
69324;DHT22;56470;47.350;8.718;2023-04-01T08:18:56;11.14;62.79
69324;DHT22;56470;47.350;8.718;2023-04-01T08:21:27;11.19;62.60
69324;DHT22;56470;47.350;8.718;2023-04-01T08:23:56;11.25;62.57
69324;DHT22;56470;47.350;8.718;2023-04-01T08:26:30;11.23;62.49
69324;DHT22;56470;47.350;8.718;2023-04-01T08:29:01;11.22;62.51
69324;DHT22;56470;47.350;8.718;2023-04-01T08:31:38;11.15;62.65
69324;DHT22;56470;47.350;8.718;2023-04-01T08:34:12;11.19;62.63
69324;DHT22;56470;47.350;8.718;2023-04-01T08:36:43;11.20;62.69
69324;DHT22;56470;47.350;8.718;2023-04-01T08:39:15;11.22;62.78
69324;DHT22;56470;47.350;8.718;2023-04-01T08:44:39;11.26;62.88
69324;DHT22;56470;47.350;8.718;2023-04-01T08:50:36;11.22;62.75
69324;DHT22;56470;47.350;8.718;2023-04-01T09:07:34;11.15;62.98
69324;DHT22;56470;47.350;8.718;2023-04-01T09:10:24;11.19;63.14
69324;DHT22;56470;47.350;8.718;2023-04-01T09:15:49;11.27;62.31
69324;DHT22;56470;47.350;8.718;2023-04-01T09:21:16;11.27;62.71
69324;DHT22;56470;47.350;8.718;2023-04-01T09:23:54;11.33;62.81
69324;DHT22;56470;47.350;8.718;2023-04-01T09:31:57;11.36;62.53
69324;DHT22;56470;47.350;8.718;2023-04-01T09:34:52;11.35;62.44
69324;DHT22;56470;47.350;8.718;2023-04-01T09:37:47;11.30;62.62
69324;DHT22;56470;47.350;8.718;2023-04-01T09:46:37;11.26;62.34
69324;DHT22;56470;47.350;8.718;2023-04-01T09:52:18;11.25;62.21
69324;DHT22;56470;47.350;8.718;2023-04-01T09:58:01;11.18;62.08
69324;DHT22;56470;47.350;8.718;2023-04-01T10:00:49;11.20;61.78
69324;DHT22;56470;47.350;8.718;2023-04-01T10:06:54;11.30;62.13
69324;DHT22;56470;47.350;8.718;2023-04-01T10:15:23;11.39;62.22
69324;DHT22;56470;47.350;8.718;2023-04-01T10:20:45;11.40;61.79
69324;DHT22;56470;47.350;8.718;2023-04-01T10:28:37;11.44;61.54
69324;DHT22;56470;47.350;8.718;2023-04-01T10:36:52;11.49;61.13
69324;DHT22;56470;47.350;8.718;2023-04-01T10:53:08;11.60;60.38
69324;DHT22;56470;47.350;8.718;2023-04-01T11:06:53;11.74;59.98
69324;DHT22;56470;47.350;8.718;2023-04-01T11:12:22;11.64;60.59
69324;DHT22;56470;47.350;8.718;2023-04-01T11:15:22;11.59;61.44
69324;DHT22;56470;47.350;8.718;2023-04-01T11:26:33;11.81;60.31
69324;DHT22;56470;47.350;8.718;2023-04-01T11:35:00;11.88;60.57
69324;DHT22;56470;47.350;8.718;2023-04-01T11:37:40;11.85;60.69
69324;DHT22;56470;47.350;8.718;2023-04-01T11:40:29;11.85;60.35
69324;DHT22;56470;47.350;8.718;2023-04-01T11:43:12;11.89;60.61
69324;DHT22;56470;47.350;8.718;2023-04-01T11:46:33;11.85;61.27
69324;DHT22;56470;47.350;8.718;2023-04-01T11:49:17;11.85;60.89
69324;DHT22;56470;47.350;8.718;2023-04-01T11:51:59;11.75;59.96
69324;DHT22;56470;47.350;8.718;2023-04-01T11:54:51;11.69;60.52
69324;DHT22;56470;47.350;8.718;2023-04-01T12:00:02;11.82;60.88
69324;DHT22;56470;47.350;8.718;2023-04-01T12:02:55;11.87;60.51
69324;DHT22;56470;47.350;8.718;2023-04-01T12:05:46;11.94;60.60
69324;DHT22;56470;47.350;8.718;2023-04-01T12:08:51;11.97;60.42
69324;DHT22;56470;47.350;8.718;2023-04-01T12:14:27;12.02;60.16
69324;DHT22;56470;47.350;8.718;2023-04-01T12:19:48;12.04;59.53
69324;DHT22;56470;47.350;8.718;2023-04-01T12:25:17;12.08;59.79
69324;DHT22;56470;47.350;8.718;2023-04-01T12:33:51;12.26;59.64
69324;DHT22;56470;47.350;8.718;2023-04-01T12:36:52;12.30;59.63
69324;DHT22;56470;47.350;8.718;2023-04-01T12:39:32;12.29;59.37
69324;DHT22;56470;47.350;8.718;2023-04-01T12:52:43;12.05;60.94
69324;DHT22;56470;47.350;8.718;2023-04-01T12:55:40;12.06;60.48
69324;DHT22;56470;47.350;8.718;2023-04-01T13:10:17;12.32;59.77
69324;DHT22;56470;47.350;8.718;2023-04-01T13:15:53;12.46;59.35
69324;DHT22;56470;47.350;8.718;2023-04-01T13:21:04;12.50;58.54
69324;DHT22;56470;47.350;8.718;2023-04-01T13:29:15;12.64;58.64
69324;DHT22;56470;47.350;8.718;2023-04-01T13:37:29;13.05;58.83
69324;DHT22;56470;47.350;8.718;2023-04-01T13:40:23;13.11;57.91
69324;DHT22;56470;47.350;8.718;2023-04-01T13:43:01;13.16;58.39
69324;DHT22;56470;47.350;8.718;2023-04-01T13:45:55;13.20;58.01
69324;DHT22;56470;47.350;8.718;2023-04-01T13:56:57;13.27;56.64
69324;DHT22;56470;47.350;8.718;2023-04-01T14:04:49;13.25;57.67
69324;DHT22;56470;47.350;8.718;2023-04-01T14:18:24;13.33;56.22
69324;DHT22;56470;47.350;8.718;2023-04-01T14:28:48;13.40;56.22
69324;DHT22;56470;47.350;8.718;2023-04-01T14:42:13;13.36;56.78
69324;DHT22;56470;47.350;8.718;2023-04-01T14:44:50;13.35;57.01
69324;DHT22;56470;47.350;8.718;2023-04-01T14:50:15;13.15;57.25
69324;DHT22;56470;47.350;8.718;2023-04-01T14:55:30;12.73;58.43
69324;DHT22;56470;47.350;8.718;2023-04-01T14:58:12;12.60;60.55
69324;DHT22;56470;47.350;8.718;2023-04-01T15:00:59;12.56;60.60
69324;DHT22;56470;47.350;8.718;2023-04-01T15:03:32;12.54;59.99
69324;DHT22;56470;47.350;8.718;2023-04-01T15:09:42;12.40;61.01
69324;DHT22;56470;47.350;8.718;2023-04-01T15:14:39;12.39;62.11
69324;DHT22;56470;47.350;8.718;2023-04-01T15:17:31;12.36;62.19
69324;DHT22;56470;47.350;8.718;2023-04-01T15:22:41;12.30;62.56
69324;DHT22;56470;47.350;8.718;2023-04-01T15:28:24;12.16;64.47
69324;DHT22;56470;47.350;8.718;2023-04-01T15:33:46;11.92;62.96
69324;DHT22;56470;47.350;8.718;2023-04-01T15:36:20;11.91;63.21
69324;DHT22;56470;47.350;8.718;2023-04-01T15:39:13;11.87;62.98
69324;DHT22;56470;47.350;8.718;2023-04-01T15:42:11;11.88;62.53
69324;DHT22;56470;47.350;8.718;2023-04-01T15:44:57;11.94;62.41
69324;DHT22;56470;47.350;8.718;2023-04-01T15:52:49;12.05;62.45
69324;DHT22;56470;47.350;8.718;2023-04-01T15:58:41;12.09;62.45
69324;DHT22;56470;47.350;8.718;2023-04-01T16:03:57;12.08;63.02
69324;DHT22;56470;47.350;8.718;2023-04-01T16:09:39;12.02;63.29
69324;DHT22;56470;47.350;8.718;2023-04-01T16:15:26;12.11;63.38
69324;DHT22;56470;47.350;8.718;2023-04-01T16:20:50;12.19;63.55
69324;DHT22;56470;47.350;8.718;2023-04-01T16:23:38;12.19;64.22
69324;DHT22;56470;47.350;8.718;2023-04-01T16:26:17;12.21;63.99
69324;DHT22;56470;47.350;8.718;2023-04-01T16:28:50;12.25;63.41
69324;DHT22;56470;47.350;8.718;2023-04-01T16:31:32;12.28;63.85
69324;DHT22;56470;47.350;8.718;2023-04-01T16:34:10;12.28;63.46
69324;DHT22;56470;47.350;8.718;2023-04-01T16:36:49;12.30;63.39
69324;DHT22;56470;47.350;8.718;2023-04-01T16:39:26;12.29;63.32
69324;DHT22;56470;47.350;8.718;2023-04-01T16:42:26;12.32;63.72
69324;DHT22;56470;47.350;8.718;2023-04-01T16:45:24;12.32;64.33
69324;DHT22;56470;47.350;8.718;2023-04-01T16:48:18;12.39;65.10
69324;DHT22;56470;47.350;8.718;2023-04-01T16:51:24;12.40;65.09
69324;DHT22;56470;47.350;8.718;2023-04-01T16:54:28;12.43;63.56
69324;DHT22;56470;47.350;8.718;2023-04-01T16:57:10;12.28;63.53
69324;DHT22;56470;47.350;8.718;2023-04-01T16:59:47;12.05;63.50
69324;DHT22;56470;47.350;8.718;2023-04-01T17:02:17;11.94;63.80
69324;DHT22;56470;47.350;8.718;2023-04-01T17:05:03;11.85;64.08
69324;DHT22;56470;47.350;8.718;2023-04-01T17:32:19;11.81;63.96
69324;DHT22;56470;47.350;8.718;2023-04-01T17:35:15;11.80;64.49
69324;DHT22;56470;47.350;8.718;2023-04-01T17:38:13;11.80;64.18
69324;DHT22;56470;47.350;8.718;2023-04-01T17:45:56;11.84;63.54
69324;DHT22;56470;47.350;8.718;2023-04-01T17:48:49;11.78;63.44
69324;DHT22;56470;47.350;8.718;2023-04-01T17:51:30;11.78;63.35
69324;DHT22;56470;47.350;8.718;2023-04-01T17:54:12;11.78;62.87
69324;DHT22;56470;47.350;8.718;2023-04-01T17:57:01;11.75;62.62
69324;DHT22;56470;47.350;8.718;2023-04-01T17:59:35;11.78;62.98
69324;DHT22;56470;47.350;8.718;2023-04-01T18:03:06;11.80;62.69
69324;DHT22;56470;47.350;8.718;2023-04-01T18:21:55;11.77;63.54
69324;DHT22;56470;47.350;8.718;2023-04-01T18:24:33;11.73;63.47
69324;DHT22;56470;47.350;8.718;2023-04-01T18:27:16;11.67;63.76
69324;DHT22;56470;47.350;8.718;2023-04-01T18:29:55;11.66;63.76
69324;DHT22;56470;47.350;8.718;2023-04-01T18:35:17;11.64;63.77
69324;DHT22;56470;47.350;8.718;2023-04-01T18:37:53;11.71;63.61
69324;DHT22;56470;47.350;8.718;2023-04-01T18:40:23;11.66;63.70
69324;DHT22;56470;47.350;8.718;2023-04-01T18:43:12;11.66;64.24
69324;DHT22;56470;47.350;8.718;2023-04-01T18:45:50;11.64;63.88
69324;DHT22;56470;47.350;8.718;2023-04-01T18:51:17;11.60;63.90
69324;DHT22;56470;47.350;8.718;2023-04-01T18:57:16;11.61;64.07
69324;DHT22;56470;47.350;8.718;2023-04-01T18:59:48;11.61;63.70
69324;DHT22;56470;47.350;8.718;2023-04-01T19:07:51;11.60;63.62
69324;DHT22;56470;47.350;8.718;2023-04-01T19:15:58;11.46;63.47
69324;DHT22;56470;47.350;8.718;2023-04-01T19:18:47;11.46;63.54
69324;DHT22;56470;47.350;8.718;2023-04-01T19:33:59;11.53;63.08
69324;DHT22;56470;47.350;8.718;2023-04-01T19:38:55;11.47;63.17
69324;DHT22;56470;47.350;8.718;2023-04-01T19:41:40;11.49;63.05
69324;DHT22;56470;47.350;8.718;2023-04-01T19:44:37;11.44;63.22
69324;DHT22;56470;47.350;8.718;2023-04-01T19:52:42;11.50;63.32
69324;DHT22;56470;47.350;8.718;2023-04-01T19:55:33;11.50;63.35
69324;DHT22;56470;47.350;8.718;2023-04-01T19:58:10;11.50;63.37
69324;DHT22;56470;47.350;8.718;2023-04-01T20:01:00;11.43;63.38
69324;DHT22;56470;47.350;8.718;2023-04-01T20:03:48;11.40;63.50
69324;DHT22;56470;47.350;8.718;2023-04-01T20:06:35;11.42;63.32
69324;DHT22;56470;47.350;8.718;2023-04-01T20:09:39;11.33;63.57
69324;DHT22;56470;47.350;8.718;2023-04-01T20:15:31;11.39;63.54
69324;DHT22;56470;47.350;8.718;2023-04-01T20:18:01;11.40;63.46
69324;DHT22;56470;47.350;8.718;2023-04-01T20:20:31;11.40;63.40
69324;DHT22;56470;47.350;8.718;2023-04-01T20:23:30;11.39;63.70
69324;DHT22;56470;47.350;8.718;2023-04-01T20:26:03;11.43;63.34
69324;DHT22;56470;47.350;8.718;2023-04-01T20:28:44;11.39;63.27
69324;DHT22;56470;47.350;8.718;2023-04-01T20:39:27;11.27;63.17
69324;DHT22;56470;47.350;8.718;2023-04-01T20:45:14;11.26;63.24
69324;DHT22;56470;47.350;8.718;2023-04-01T20:50:54;11.39;63.15
69324;DHT22;56470;47.350;8.718;2023-04-01T20:53:46;11.30;62.92
69324;DHT22;56470;47.350;8.718;2023-04-01T21:05:34;11.23;63.73
69324;DHT22;56470;47.350;8.718;2023-04-01T21:21:04;11.36;63.92
69324;DHT22;56470;47.350;8.718;2023-04-01T21:29:53;11.39;63.44
69324;DHT22;56470;47.350;8.718;2023-04-01T21:32:31;11.36;63.55
69324;DHT22;56470;47.350;8.718;2023-04-01T21:35:06;11.37;63.47
69324;DHT22;56470;47.350;8.718;2023-04-01T21:37:43;11.42;63.65
69324;DHT22;56470;47.350;8.718;2023-04-01T21:40:40;11.37;63.74
69324;DHT22;56470;47.350;8.718;2023-04-01T21:52:07;11.27;63.24
69324;DHT22;56470;47.350;8.718;2023-04-01T21:54:42;11.23;63.25
69324;DHT22;56470;47.350;8.718;2023-04-01T22:00:18;11.23;63.27
69324;DHT22;56470;47.350;8.718;2023-04-01T22:13:50;11.14;63.15
69324;DHT22;56470;47.350;8.718;2023-04-01T22:16:41;11.18;63.06
69324;DHT22;56470;47.350;8.718;2023-04-01T22:21:55;11.25;62.97
69324;DHT22;56470;47.350;8.718;2023-04-01T22:27:26;11.25;62.85
69324;DHT22;56470;47.350;8.718;2023-04-01T22:32:42;11.30;62.64
69324;DHT22;56470;47.350;8.718;2023-04-01T22:40:34;11.32;62.60
69324;DHT22;56470;47.350;8.718;2023-04-01T22:43:09;11.32;62.55
69324;DHT22;56470;47.350;8.718;2023-04-01T22:54:09;11.26;62.57
69324;DHT22;56470;47.350;8.718;2023-04-01T22:56:41;11.26;62.40
69324;DHT22;56470;47.350;8.718;2023-04-01T22:59:17;11.25;62.32
69324;DHT22;56470;47.350;8.718;2023-04-01T23:01:52;11.20;62.32
69324;DHT22;56470;47.350;8.718;2023-04-01T23:04:24;11.19;62.48
69324;DHT22;56470;47.350;8.718;2023-04-01T23:06:56;11.22;62.58
69324;DHT22;56470;47.350;8.718;2023-04-01T23:09:28;11.26;62.55
69324;DHT22;56470;47.350;8.718;2023-04-01T23:12:05;11.25;62.51
69324;DHT22;56470;47.350;8.718;2023-04-01T23:14:51;11.26;62.55
69324;DHT22;56470;47.350;8.718;2023-04-01T23:22:35;11.19;62.63
69324;DHT22;56470;47.350;8.718;2023-04-01T23:36:13;11.07;62.92
69324;DHT22;56470;47.350;8.718;2023-04-01T23:38:40;11.08;62.97
69324;DHT22;56470;47.350;8.718;2023-04-01T23:41:08;11.09;62.99
69324;DHT22;56470;47.350;8.718;2023-04-01T23:43:37;11.05;62.94
69324;DHT22;56470;47.350;8.718;2023-04-01T23:46:04;11.04;63.08
69324;DHT22;56470;47.350;8.718;2023-04-01T23:48:36;11.05;63.12
69324;DHT22;56470;47.350;8.718;2023-04-01T23:51:03;11.05;63.11
69324;DHT22;56470;47.350;8.718;2023-04-01T23:53:34;11.02;63.03
69324;DHT22;56470;47.350;8.718;2023-04-01T23:56:02;11.04;63.09
69324;DHT22;56470;47.350;8.718;2023-04-01T23:58:42;11.05;63.09
